地図

経路データ

SID SEASON NUMBER BASIN SUBBASIN NAME ISO_TIME NATURE LAT LON WMO_WIND WMO_PRES WMO_AGENCY TRACK_TYPE DIST2LAND LANDFALL IFLAG USA_AGENCY USA_ATCF_ID USA_LAT USA_LON USA_RECORD USA_STATUS USA_WIND USA_PRES USA_SSHS USA_R34_NE USA_R34_SE USA_R34_SW USA_R34_NW USA_R50_NE USA_R50_SE USA_R50_SW USA_R50_NW USA_R64_NE USA_R64_SE USA_R64_SW USA_R64_NW USA_POCI USA_ROCI USA_RMW USA_EYE TOKYO_LAT TOKYO_LON TOKYO_GRADE TOKYO_WIND TOKYO_PRES TOKYO_R50_DIR TOKYO_R50_LONG TOKYO_R50_SHORT TOKYO_R30_DIR TOKYO_R30_LONG TOKYO_R30_SHORT TOKYO_LAND CMA_LAT CMA_LON CMA_CAT CMA_WIND CMA_PRES HKO_LAT HKO_LON HKO_CAT HKO_WIND HKO_PRES NEWDELHI_LAT NEWDELHI_LON NEWDELHI_GRADE NEWDELHI_WIND NEWDELHI_PRES NEWDELHI_CI NEWDELHI_DP NEWDELHI_POCI REUNION_LAT REUNION_LON REUNION_TYPE REUNION_WIND REUNION_PRES REUNION_TNUM REUNION_CI REUNION_RMW REUNION_R34_NE REUNION_R34_SE REUNION_R34_SW REUNION_R34_NW REUNION_R50_NE REUNION_R50_SE REUNION_R50_SW REUNION_R50_NW REUNION_R64_NE REUNION_R64_SE REUNION_R64_SW REUNION_R64_NW BOM_LAT BOM_LON BOM_TYPE BOM_WIND BOM_PRES BOM_TNUM BOM_CI BOM_RMW BOM_R34_NE BOM_R34_SE BOM_R34_SW BOM_R34_NW BOM_R50_NE BOM_R50_SE BOM_R50_SW BOM_R50_NW BOM_R64_NE BOM_R64_SE BOM_R64_SW BOM_R64_NW BOM_ROCI BOM_POCI BOM_EYE BOM_POS_METHOD BOM_PRES_METHOD NADI_LAT NADI_LON NADI_CAT NADI_WIND NADI_PRES WELLINGTON_LAT WELLINGTON_LON WELLINGTON_WIND WELLINGTON_PRES DS824_LAT DS824_LON DS824_STAGE DS824_WIND DS824_PRES TD9636_LAT TD9636_LON TD9636_STAGE TD9636_WIND TD9636_PRES TD9635_LAT TD9635_LON TD9635_WIND TD9635_PRES TD9635_ROCI NEUMANN_LAT NEUMANN_LON NEUMANN_CLASS NEUMANN_WIND NEUMANN_PRES MLC_LAT MLC_LON MLC_CLASS MLC_WIND MLC_PRES USA_GUST BOM_GUST BOM_GUST_PER REUNION_GUST REUNION_GUST_PER USA_SEAHGT USA_SEARAD_NE USA_SEARAD_SE USA_SEARAD_SW USA_SEARAD_NW STORM_SPEED STORM_DIR
1975081S12116 1975 31 SI WA BEVERLEY 1975-03-22 00:00:00 TS -12.2000 116.000 main 361 361 O________OO___ jtwc_sh SH281975 -12.2000 116.000 -1 -12.2000 116.000 TC -12.2000 116.000 2 5 198
1975081S12116 1975 31 SI WA BEVERLEY 1975-03-22 01:00:00 TS -12.2841 115.986 20 1006 bom main 372 372 P_____O__PP___ SH281975 -12.2177 116.000 -1 -12.7000 115.900 20 20 1006 1.00000 1.00000 -12.2177 116.000 TC -12.2089 116.001 2 3 183
1975081S12116 1975 31 SI WA BEVERLEY 1975-03-22 03:00:00 TS -12.3250 115.980 main 372 372 P_____P__PP___ SH281975 -12.2525 116.000 -1 -12.6877 115.888 20 20 1006 -12.2525 116.000 TC -12.2281 116.002 2 1 203
1975081S12116 1975 31 SI WA BEVERLEY 1975-03-22 04:00:00 TS -12.3473 115.981 20 1006 bom main 372 372 P_____O__PP___ SH281975 -12.2691 116.000 -1 -12.7000 115.900 20 20 1006 1.00000 -12.2691 116.000 TC -12.2390 116.002 2 3 0
1975081S12116 1975 31 SI WA BEVERLEY 1975-03-22 06:00:00 TS -12.4520 115.994 main 394 394 O_____P__OP_O_ jtwc_sh SH281975 -12.3000 116.000 -1 -12.7691 115.969 20 20 1005 -12.3000 116.000 TC -12.2650 116.002 2 -12.8000 116.000 TC 20 1005 3 174
1975081S12116 1975 31 SI WA BEVERLEY 1975-03-22 07:00:00 TS -12.5046 116.003 20 1005 bom main 394 394 P_____O__PP_P_ SH281975 -12.3140 116.000 -1 -12.8000 116.000 20 20 1005 1.00000 -12.3140 116.000 TC -12.2807 116.003 2 -12.8167 116.021 TC 20 1004 2 0
1975081S12116 1975 31 SI WA BEVERLEY 1975-03-22 09:00:00 TS -12.5577 116.010 main 405 405 P_____P__PP_P_ SH281975 -12.3425 116.000 -1 -12.7975 116.005 20 20 1004 -12.3425 116.000 TC -12.3194 116.002 2 -12.8500 116.060 TC 20 1004 2 0
1975081S12116 1975 31 SI WA BEVERLEY 1975-03-22 10:00:00 TS -12.5969 116.013 20 1004 bom main 405 405 P_____O__PP_P_ SH281975 -12.3588 116.000 -1 -12.8000 116.000 20 20 1004 1.00000 -12.3588 116.000 TC -12.3429 116.002 2 -12.8667 116.077 TC 20 1004 2 166
1975081S12116 1975 31 SI WA BEVERLEY 1975-03-22 12:00:00 TS -12.6435 116.017 main 405 405 O_____P__OO_O_ jtwc_sh SH281975 -12.4000 116.000 -1 -12.8612 116.000 20 20 1004 -12.4000 116.000 TC -12.4000 116.000 2 -12.9000 116.100 TC 20 1004 2 161
1975081S12116 1975 31 SI WA BEVERLEY 1975-03-22 13:00:00 TS -12.6718 116.017 20 1004 bom main 416 416 P_____O__PP_P_ SH281975 -12.4250 116.000 -1 -12.9000 116.000 20 20 1004 1.00000 -12.4250 116.000 TC -12.4341 115.999 2 -12.9167 116.106 TC 20 1003 2 0
1975081S12116 1975 31 SI WA BEVERLEY 1975-03-22 15:00:00 TS -12.7330 116.017 main 416 416 P_____P__PP_P_ SH281975 -12.4850 116.000 -1 -12.9667 116.000 20 20 1004 -12.4850 116.000 TC -12.5116 115.996 2 -12.9500 116.108 TC 22 1003 2 194
1975081S12116 1975 31 SI WA BEVERLEY 1975-03-22 16:00:00 TS -12.7660 116.017 20 1004 bom main 427 427 P_____O__PP_P_ SH281975 -12.5200 116.000 -1 -13.0000 116.000 20 20 1004 1.00000 -12.5200 116.000 TC -12.5538 115.995 2 -12.9667 116.105 TC 23 1003 2 190
1975081S12116 1975 31 SI WA BEVERLEY 1975-03-22 18:00:00 TS -12.8362 116.015 main 427 427 O_____P__OP_O_ jtwc_sh SH281975 -12.6000 116.000 -1 -13.0746 116.000 20 20 1003 -12.6000 116.000 TC -12.6425 115.993 2 -13.0000 116.100 TC 25 1003 2 183
1975081S12116 1975 31 SI WA BEVERLEY 1975-03-22 19:00:00 TS -12.8705 116.015 20 1003 bom main 438 438 P_____O__PP_P_ SH281975 -12.6495 116.000 -1 -13.1000 116.000 20 20 1003 1.00000 -12.6495 116.000 TC -12.6877 115.992 2 -13.0140 116.100 TC 25 1003 2 170
1975081S12116 1975 31 SI WA BEVERLEY 1975-03-22 21:00:00 TS -12.9316 116.015 main 438 438 P_____P__PP_P_ SH281975 -12.7575 116.000 -1 -13.0975 116.000 20 20 1003 -12.7575 116.000 TC -12.7772 115.993 2 -13.0425 116.100 TC 25 1003 2 0
1975081S12116 1975 31 SI WA BEVERLEY 1975-03-22 22:00:00 TS -12.9620 116.016 20 1003 bom main 450 450 P_____O__PP_P_ SH281975 -12.8104 116.000 -1 -13.1000 116.000 20 20 1003 1.00000 -12.8104 116.000 TC -12.8202 115.994 2 -13.0588 116.100 TC 25 1003 2 175
1975081S12116 1975 31 SI WA BEVERLEY 1975-03-23 00:00:00 TS -13.0282 116.017 main 450 450 O_____P__OO_O_ jtwc_sh SH281975 -12.9000 116.000 -1 -13.1691 116.000 20 20 1003 -12.9000 116.000 TC -12.9000 116.000 2 -13.1000 116.100 TC 25 1003 2 0
1975081S12116 1975 31 SI WA BEVERLEY 1975-03-23 01:00:00 TS -13.0539 116.017 20 1003 bom main 461 461 P_____O__PP_P_ SH281975 -12.9255 115.997 -1 -13.2000 116.000 20 20 1003 1.00000 1.00000 -12.9255 115.997 TC -12.9280 116.006 2 -13.1302 116.100 TC 25 1003 1 0
1975081S12116 1975 31 SI WA BEVERLEY 1975-03-23 03:00:00 TS -13.0887 116.018 main 461 461 P_____P__PP_P_ SH281975 -12.9575 115.993 -1 -13.1975 116.000 20 20 1003 -12.9575 115.993 TC -12.9772 116.022 2 -13.2000 116.100 TC 25 1003 1 157
1975081S12116 1975 31 SI WA BEVERLEY 1975-03-23 04:00:00 TS -13.1056 116.019 20 1003 bom main 461 461 P_____O__PP_P_ SH281975 -12.9696 115.992 -1 -13.2000 116.000 20 20 1003 1.00000 -12.9696 115.992 TC -12.9995 116.031 2 -13.2358 116.100 TC 25 1003 1 0
1975081S12116 1975 31 SI WA BEVERLEY 1975-03-23 06:00:00 TS -13.1506 116.025 main 471 471 O_____P__OP_O_ jtwc_sh SH281975 -13.0000 116.000 -1 -13.2612 116.000 20 20 1003 -13.0000 116.000 TC -13.0425 116.050 2 -13.3000 116.100 TC 25 1003 1 0
1975081S12116 1975 31 SI WA BEVERLEY 1975-03-23 07:00:00 TS -13.1774 116.031 20 1003 bom main 471 471 P_____O__PP_P_ SH281975 -13.0276 116.014 -1 -13.3000 116.000 20 20 1003 1.00000 -13.0276 116.014 TC -13.0643 116.060 2 -13.3171 116.100 TC 25 1003 2 0
1975081S12116 1975 31 SI WA BEVERLEY 1975-03-23 09:00:00 TS -13.2330 116.046 main 471 469 P_____P__PP_P_ SH281975 -13.0925 116.050 -1 -13.3667 116.000 20 20 1003 -13.0925 116.050 TC -13.1116 116.078 2 -13.3425 116.100 TC 25 1003 2 165
1975081S12116 1975 31 SI WA BEVERLEY 1975-03-23 10:00:00 TS -13.2630 116.054 20 1003 bom main 480 480 P_____O__PP_P_ SH281975 -13.1279 116.069 -1 -13.4000 116.000 20 20 1003 1.50000 -13.1279 116.069 TC -13.1381 116.086 2 -13.3563 116.100 TC 25 1003 2 168
1975081S12116 1975 31 SI WA BEVERLEY 1975-03-23 12:00:00 TS -13.3278 116.067 main 480 480 O_____P__OO_O_ jtwc_sh SH281975 -13.2000 116.100 -1 -13.4667 116.000 20 23 1003 -13.2000 116.100 TC -13.2000 116.100 2 -13.4000 116.100 TC 25 1003 2 176
1975081S12116 1975 31 SI WA BEVERLEY 1975-03-23 13:00:00 TS -13.3596 116.069 25 1003 bom main 491 491 P_____O__PP_P_ SH281975 -13.2281 116.106 -1 -13.5000 116.000 20 25 1003 1.50000 -13.2281 116.106 TC -13.2350 116.105 2 -13.4386 116.100 TC 25 1002 2 0
1975081S12116 1975 31 SI WA BEVERLEY 1975-03-23 15:00:00 TS -13.4268 116.071 main 491 491 P_____P__PP_P_ SH281975 -13.2850 116.108 -1 -13.5588 116.000 20 25 1003 -13.2850 116.108 TC -13.3122 116.111 2 -13.5350 116.100 TC 25 1002 2 0
1975081S12116 1975 31 SI WA BEVERLEY 1975-03-23 16:00:00 TS -13.4660 116.071 25 1003 bom main 502 502 P_____O__PP_P_ SH281975 -13.3175 116.105 -1 -13.6000 116.000 20 25 1003 1.50000 -13.3175 116.105 TC -13.3546 116.113 2 -13.5891 116.100 TC 25 1002 3 188
1975081S12116 1975 31 SI WA BEVERLEY 1975-03-23 18:00:00 TS -13.5626 116.069 main 513 513 O_____P__OP_O_ jtwc_sh SH281975 -13.4000 116.100 -1 -13.7279 116.000 20 25 1002 -13.4000 116.100 TC -13.4475 116.115 2 -13.7000 116.100 TC 25 1002 3 188
1975081S12116 1975 31 SI WA BEVERLEY 1975-03-23 19:00:00 TS -13.6177 116.069 25 1002 bom main 513 513 P_____O__PP_P_ SH281975 -13.4526 116.100 -1 -13.8000 116.000 20 25 1002 1.50000 -13.4526 116.100 TC -13.4983 116.115 2 -13.7474 116.100 TC 25 1002 4 185
1975081S12116 1975 31 SI WA BEVERLEY 1975-03-23 21:00:00 TS -13.7388 116.069 main 524 524 P_____P__PP_P_ SH281975 -13.5775 116.100 -1 -13.9412 116.000 20 25 1002 -13.5775 116.100 TC -13.6091 116.111 2 -13.8425 116.100 TC 25 1002 4 186
1975081S12116 1975 31 SI WA BEVERLEY 1975-03-23 22:00:00 TS -13.8022 116.068 25 1002 bom main 535 535 P_____O__PP_P_ SH281975 -13.6479 116.100 -1 -14.0000 116.000 20 25 1002 1.50000 -13.6479 116.100 TC -13.6693 116.108 2 -13.8921 116.100 TC 25 1002 4 186
1975081S12116 1975 31 SI WA BEVERLEY 1975-03-24 00:00:00 TS -13.9274 116.067 main 546 546 O_____P__OO_O_ jtwc_sh SH281975 -13.8000 116.100 -1 -14.0642 116.000 20 25 1002 -13.8000 116.100 TC -13.8000 116.100 2 -14.0000 116.100 TC 25 1002 4 0
1975081S12116 1975 31 SI WA BEVERLEY 1975-03-24 01:00:00 TS -13.9923 116.067 25 1002 bom main 557 557 P_____O__PP_P_ SH281975 -13.8776 116.103 -1 -14.1000 116.000 20 25 1002 2.00000 2.00000 -13.8776 116.103 TC -13.8712 116.095 2 -14.0610 116.100 TC 25 1001 4 0
1975081S12116 1975 31 SI WA BEVERLEY 1975-03-24 03:00:00 TS -14.1371 116.066 main 568 568 P_____P__PP_P_ SH281975 -14.0425 116.107 -1 -14.2200 116.000 20 25 1001 -14.0425 116.107 TC -14.0253 116.082 2 -14.1925 116.100 TC 27 1001 4 185
1975081S12116 1975 31 SI WA BEVERLEY 1975-03-24 04:00:00 TS -14.2151 116.065 25 1001 bom main 579 579 P_____O__PP_P_ SH281975 -14.1279 116.108 -1 -14.3000 116.000 20 25 1001 2.00000 -14.1279 116.108 TC -14.1072 116.075 2 -14.2612 116.100 TC 28 1000 5 185
1975081S12116 1975 31 SI WA BEVERLEY 1975-03-24 06:00:00 TS -14.3800 116.060 main 601 601 O_____P__OP_O_ jtwc_sh SH281975 -14.3000 116.100 -1 -14.5025 116.000 20 25 999 -14.3000 116.100 TC -14.2775 116.058 2 -14.4000 116.100 TC 30 1000 5 0
1975081S12116 1975 31 SI WA BEVERLEY 1975-03-24 07:00:00 TS -14.4599 116.054 25 999 bom main 612 612 P_____O__PP_P_ SH281975 -14.3833 116.086 -1 -14.6000 116.000 20 25 999 2.00000 -14.3833 116.086 TC -14.3648 116.048 2 -14.4640 116.100 TC 30 999 5 0
1975081S12116 1975 31 SI WA BEVERLEY 1975-03-24 09:00:00 TS -14.6108 116.038 main 625 625 P_____P__PP_P_ SH281975 -14.5500 116.050 -1 -14.7388 116.000 20 25 998 -14.5500 116.050 TC -14.5409 116.029 2 -14.5925 116.100 TC 32 998 5 0
1975081S12116 1975 31 SI WA BEVERLEY 1975-03-24 10:00:00 TS -14.6855 116.030 25 998 bom main 636 636 P_____O__PP_P_ SH281975 -14.6333 116.031 -1 -14.8000 116.000 20 25 998 2.00000 -14.6333 116.031 TC -14.6286 116.019 2 -14.6588 116.100 TC 33 998 5 0
1975081S12116 1975 31 SI WA BEVERLEY 1975-03-24 12:00:00 TS -14.8389 116.017 main 647 642 O_____P__OO_O_ jtwc_sh SH281975 -14.8000 116.000 -1 -14.9333 116.000 20 28 996 -14.8000 116.000 TC -14.8000 116.000 2 -14.8000 116.100 TC 35 997 5 187
1975081S12116 1975 31 SI WA BEVERLEY 1975-03-24 13:00:00 TS -14.9180 116.015 30 996 bom main 642 619 P_____O__PP_P_ SH281975 -14.8860 115.997 -1 -15.0000 116.000 20 30 996 2.50000 -14.8860 115.997 TC -14.8808 115.992 2 -14.8776 116.103 TC 35 996 5 0
1975081S12116 1975 31 SI WA BEVERLEY 1975-03-24 15:00:00 TS -15.0776 116.015 main 619 619 P_____P__PP_P_ SH281975 -15.0575 116.000 -1 -15.1254 116.000 20 36 994 -15.0575 116.000 TC -15.0403 115.975 2 -15.0425 116.107 TC 37 995 5 0
1975081S12116 1975 31 SI WA BEVERLEY 1975-03-24 16:00:00 TS -15.1595 116.015 40 994 bom main 608 597 P_____O__PP_P_ SH281975 -15.1412 116.002 -1 -15.2000 116.000 30 40 994 3.00000 -15.1412 116.002 TC -15.1188 115.967 2 -15.1279 116.108 TC 38 994 5 0
1975081S12116 1975 31 SI WA BEVERLEY 1975-03-24 18:00:00 TS -15.3292 116.010 main 597 586 O_____P__OP_O_ jtwc_sh SH281975 -15.3000 116.000 -1 -15.4025 116.008 30 43 991 -15.3000 116.000 TC -15.2725 115.950 2 -15.3000 116.100 TC 40 993 5 186
1975081S12116 1975 31 SI WA BEVERLEY 1975-03-24 19:00:00 TS -15.4116 115.998 45 991 bom main 586 575 P_____O__PP_P_ SH281975 -15.3750 115.986 -1 -15.5000 116.000 30 45 991 3.00000 -15.3750 115.986 TC -15.3475 115.942 2 -15.3860 116.086 TC 41 992 5 195
1975081S12116 1975 31 SI WA BEVERLEY 1975-03-24 21:00:00 TS -15.5616 115.959 main 564 564 P_____P__PP_P_ SH281975 -15.5150 115.950 -1 -15.6309 115.931 30 48 989 -15.5150 115.950 TC -15.4934 115.925 2 -15.5575 116.050 TC 45 991 5 195
1975081S12116 1975 31 SI WA BEVERLEY 1975-03-24 22:00:00 TS -15.6344 115.940 50 989 bom main 565 543 P_____O__PP_P_ SH281975 -15.5800 115.931 -1 -15.7000 115.900 30 50 989 3.50000 -15.5800 115.931 TC -15.5640 115.917 2 -15.6412 116.031 TC 46 990 5 192
1975081S12116 1975 31 SI WA BEVERLEY 1975-03-25 00:00:00 TS -15.7837 115.916 main 543 543 O_____P__OO_O_ jtwc_sh SH281975 -15.7000 115.900 -1 -15.9025 115.895 30 50 988 -15.7000 115.900 TC -15.7000 115.900 2 -15.8000 116.000 TC 50 989 4 0
1975081S12116 1975 31 SI WA BEVERLEY 1975-03-25 01:00:00 TS -15.8527 115.913 50 988 bom main 532 521 P_____O__PP_P_ SH281975 -15.7531 115.897 -1 -16.0000 115.900 30 50 988 3.50000 3.50000 -15.7531 115.897 TC -15.7650 115.893 2 -15.8724 115.997 TC 50 988 4 0
1975081S12116 1975 31 SI WA BEVERLEY 1975-03-25 03:00:00 TS -15.9739 115.913 main 521 521 P_____P__PP_P_ SH281975 -15.8500 115.900 -1 -16.1388 115.900 30 50 986 -15.8500 115.900 TC -15.8894 115.879 2 -16.0075 116.000 TC 52 986 4 0
1975081S12116 1975 31 SI WA BEVERLEY 1975-03-25 04:00:00 TS -16.0314 115.914 50 986 bom main 521 510 P_____O__PP_P_ SH281975 -15.8975 115.902 -1 -16.2000 115.900 30 50 986 3.50000 -15.8975 115.902 TC -15.9491 115.872 2 -16.0721 116.002 TC 53 985 4 186
1975081S12116 1975 31 SI WA BEVERLEY 1975-03-25 06:00:00 TS -16.1497 115.911 main 510 499 O_____P__OP_O_ jtwc_sh SH281975 -16.0000 115.900 -1 -16.3333 115.908 30 50 983 -16.0000 115.900 TC -16.0650 115.857 2 -16.2000 116.000 TC 55 984 4 0
1975081S12116 1975 31 SI WA BEVERLEY 1975-03-25 07:00:00 TS -16.2146 115.901 50 983 bom main 499 488 P_____O__PP_P_ SH281975 -16.0636 115.889 -1 -16.4000 115.900 30 50 983 3.50000 -16.0636 115.889 TC -16.1216 115.850 2 -16.2693 115.986 TC 56 983 4 190
1975081S12116 1975 31 SI WA BEVERLEY 1975-03-25 09:00:00 TS -16.3482 115.864 main 488 477 P_____P__PP_P_ SH281975 -16.2000 115.858 -1 -16.5412 115.831 30 53 980 -16.2000 115.858 TC -16.2331 115.832 2 -16.4075 115.950 TC 60 981 4 195
1975081S12116 1975 31 SI WA BEVERLEY 1975-03-25 10:00:00 TS -16.4127 115.845 55 980 bom main 479 468 P_____O__PP_P_ SH281975 -16.2691 115.839 -1 -16.6000 115.800 30 55 980 4.00000 -16.2691 115.839 TC -16.2886 115.822 2 -16.4746 115.931 TC 61 980 4 195
1975081S12116 1975 31 SI WA BEVERLEY 1975-03-25 12:00:00 TS -16.5274 115.816 main 468 457 O_____P__OO_O_ jtwc_sh SH281975 -16.4000 115.800 -1 -16.6642 115.795 30 58 977 -16.4000 115.800 TC -16.4000 115.800 2 -16.6000 115.900 TC 65 978 3 194
1975081S12116 1975 31 SI WA BEVERLEY 1975-03-25 13:00:00 TS -16.5799 115.807 60 977 bom main 457 446 P_____O__PP_P_ SH281975 -16.4531 115.783 -1 -16.7000 115.800 30 60 977 4.00000 -16.4531 115.783 TC -16.4620 115.798 2 -16.6557 115.897 TC 65 977 3 186
1975081S12116 1975 31 SI WA BEVERLEY 1975-03-25 15:00:00 TS -16.6896 115.792 main 446 446 P_____P__PP_P_ SH281975 -16.5500 115.750 -1 -16.8358 115.808 30 63 974 -16.5500 115.750 TC -16.5870 115.794 2 -16.7575 115.900 TC 67 975 3 184
1975081S12116 1975 31 SI WA BEVERLEY 1975-03-25 16:00:00 TS -16.7426 115.782 65 973 bom main 446 435 P_____O__PP_P_ SH281975 -16.5975 115.733 -1 -16.9000 115.800 40 65 973 4.50000 -16.5975 115.733 TC -16.6494 115.790 2 -16.8054 115.902 TC 68 974 3 192
1975081S12116 1975 31 SI WA BEVERLEY 1975-03-25 18:00:00 TS -16.8394 115.751 main 435 427 O_____P__OP_O_ jtwc_sh SH281975 -16.7000 115.700 -1 -16.9642 115.731 40 68 970 -16.7000 115.700 TC -16.7722 115.775 2 -16.9000 115.900 TC 70 972 3 197
1975081S12116 1975 31 SI WA BEVERLEY 1975-03-25 19:00:00 TS -16.8941 115.738 70 970 bom main 427 416 P_____O__PP_P_ SH281975 -16.7662 115.694 -1 -17.0000 115.700 40 70 970 4.50000 -16.7662 115.694 TC -16.8320 115.761 2 -16.9500 115.894 TC 71 971 4 193
1975081S12116 1975 31 SI WA BEVERLEY 1975-03-25 21:00:00 TS -17.0162 115.718 main 416 405 P_____P__PP_P_ SH281975 -16.9074 115.680 -1 -17.1358 115.702 40 73 967 -16.9074 115.680 TC -16.9463 115.719 2 -17.0500 115.872 TC 75 969 4 192
1975081S12116 1975 31 SI WA BEVERLEY 1975-03-25 22:00:00 TS -17.0757 115.702 75 967 bom main 405 394 P_____O__PP_P_ SH281975 -16.9770 115.665 -1 -17.2000 115.700 40 75 967 4.50000 -16.9770 115.665 TC -17.0003 115.687 2 -17.1000 115.855 TC 76 968 4 207
1975081S12116 1975 31 SI WA BEVERLEY 1975-03-26 00:00:00 TS -17.1774 115.640 main 397 397 O_____P__OO_O_ jtwc_sh SH281975 -17.1000 115.600 -1 -17.2642 115.639 40 78 964 -17.1000 115.600 TC -17.1000 115.600 2 -17.2000 115.800 TC 80 966 4 216
1975081S12116 1975 31 SI WA BEVERLEY 1975-03-26 01:00:00 TS -17.2220 115.591 80 964 bom main 397 386 P_____O__PP_P_ SH281975 -17.1448 115.542 -1 -17.3000 115.600 40 80 964 5.00000 5.00000 -17.1448 115.542 TC -17.1423 115.531 2 -17.2474 115.759 TC 80 965 4 229
1975081S12116 1975 31 SI WA BEVERLEY 1975-03-26 03:00:00 TS -17.3140 115.473 main 390 390 P_____P__PP_P_ SH281975 -17.2150 115.387 -1 -17.4358 115.533 40 80 962 -17.2150 115.387 TC -17.2179 115.365 2 -17.3425 115.658 TC 82 963 4 233
1975081S12116 1975 31 SI WA BEVERLEY 1975-03-26 04:00:00 TS -17.3568 115.407 80 962 bom main 383 383 P_____O__PP_P_ SH281975 -17.2442 115.296 -1 -17.5000 115.500 40 80 962 5.00000 -17.2442 115.296 TC -17.2521 115.272 2 -17.3921 115.603 TC 83 962 5 239
1975081S12116 1975 31 SI WA BEVERLEY 1975-03-26 06:00:00 TS -17.4339 115.268 main 387 380 O_____P__OP_O_ jtwc_sh SH281975 -17.3000 115.100 -1 -17.5879 115.433 40 80 960 -17.3000 115.100 TC -17.3155 115.073 2 -17.5000 115.500 TC 85 960 5 241
1975081S12116 1975 31 SI WA BEVERLEY 1975-03-26 07:00:00 TS -17.4683 115.201 80 960 bom main 380 380 P_____O__PP_P_ SH281975 -17.3308 114.995 -1 -17.6000 115.400 40 80 960 5.00000 -17.3308 114.995 TC -17.3457 114.970 2 -17.5662 115.469 TC 86 959 4 247
1975081S12116 1975 31 SI WA BEVERLEY 1975-03-26 09:00:00 TS -17.5158 115.067 main 385 385 P_____P__PP_P_ SH281975 -17.3926 114.778 -1 -17.4968 115.341 40 83 957 -17.3926 114.778 TC -17.4054 114.769 2 -17.7074 115.415 TC 90 957 4 247
1975081S12116 1975 31 SI WA BEVERLEY 1975-03-26 10:00:00 TS -17.5491 114.999 85 957 bom main 390 375 P_____O__PP_P_ SH281975 -17.4255 114.674 -1 -17.5000 115.300 40 85 957 5.00000 -17.4255 114.674 TC -17.4358 114.673 2 -17.7770 115.385 TC 91 956 5 231
1975081S12116 1975 31 SI WA BEVERLEY 1975-03-26 12:00:00 TS -17.6734 114.863 main 375 375 O_____P__OO_O_ jtwc_sh SH281975 -17.5000 114.500 -1 -17.8402 115.180 40 88 954 -17.5000 114.500 TC -17.5000 114.500 2 -17.9000 115.300 TC 95 955 5 225
1975081S12116 1975 31 SI WA BEVERLEY 1975-03-26 13:00:00 TS -17.7388 114.801 90 954 bom main 380 371 P_____O__PP_P_ SH281975 -17.5469 114.446 -1 -18.0000 115.100 40 90 954 5.50000 -17.5469 114.446 TC -17.5419 114.441 2 -17.9474 115.234 TC 95 954 5 231
1975081S12116 1975 31 SI WA BEVERLEY 1975-03-26 15:00:00 TS -17.8215 114.674 main 377 373 P_____P__PP_P_ SH281975 -17.6499 114.377 -1 -18.0193 114.897 40 90 951 -17.6499 114.377 TC -17.6297 114.340 2 -18.0225 115.073 TC 97 952 4 236
1975081S12116 1975 31 SI WA BEVERLEY 1975-03-26 16:00:00 TS -17.8570 114.613 90 950 bom main 373 373 P_____O__PP_P_ SH281975 -17.7024 114.353 -1 -18.0000 114.800 40 90 950 5.50000 -17.7024 114.353 TC -17.6747 114.297 2 -18.0521 114.983 TC 98 951 4 236
1975081S12116 1975 31 SI WA BEVERLEY 1975-03-26 18:00:00 TS -17.9376 114.498 main 379 370 O_____P__OP_O_ jtwc_sh SH281975 -17.8000 114.300 -1 -18.0612 114.669 40 93 947 -17.8000 114.300 TC -17.7647 114.220 2 -18.1000 114.800 TC 100 950 4 236
1975081S12116 1975 31 SI WA BEVERLEY 1975-03-26 19:00:00 TS -17.9724 114.435 95 947 bom main 375 375 P_____O__PP_P_ SH281975 -17.8390 114.256 -1 -18.1000 114.600 40 95 947 5.50000 -17.8390 114.256 TC -17.8086 114.184 2 -18.1224 114.714 TC 100 949 4 244
1975081S12116 1975 31 SI WA BEVERLEY 1975-03-26 21:00:00 TS -18.0328 114.295 main 380 376 P_____P__PP_P_ SH281975 -17.9075 114.157 -1 -18.1746 114.405 40 98 944 -17.9075 114.157 TC -17.8923 114.115 2 -18.1575 114.542 TC 102 947 4 247
1975081S12116 1975 31 SI WA BEVERLEY 1975-03-26 22:00:00 TS -18.0584 114.223 100 944 bom main 376 376 P_____O__PP_P_ SH281975 -17.9388 114.105 -1 -18.2000 114.300 40 100 944 6.00000 -17.9388 114.105 TC -17.9310 114.079 2 -18.1721 114.459 TC 103 946 4 252
1975081S12116 1975 31 SI WA BEVERLEY 1975-03-27 00:00:00 TS -18.0996 114.082 main 382 382 O_____P__OO_O_ jtwc_sh SH281975 -18.0000 114.000 -1 -18.1975 114.092 40 100 942 -18.0000 114.000 TC -18.0000 114.000 2 -18.2000 114.300 TC 105 944 4 251
1975081S12116 1975 31 SI WA BEVERLEY 1975-03-27 01:00:00 TS -18.1249 114.016 100 942 bom main 388 379 P_____O__PP_P_ SH281975 -18.0386 113.953 -1 -18.2000 114.000 40 100 942 6.00000 6.00000 -18.0386 113.953 TC -18.0304 113.947 2 -18.2140 114.225 TC 105 943 4 244
1975081S12116 1975 31 SI WA BEVERLEY 1975-03-27 03:00:00 TS -18.1850 113.894 main 386 386 P_____P__PP_P_ SH281975 -18.1150 113.858 -1 -18.2612 113.853 40 100 940 -18.1150 113.858 TC -18.0838 113.835 2 -18.2425 114.085 TC 107 942 4 242
1975081S12116 1975 31 SI WA BEVERLEY 1975-03-27 04:00:00 TS -18.2153 113.838 100 940 bom main 391 382 P_____O__PP_P_ SH281975 -18.1491 113.808 -1 -18.3000 113.800 40 100 940 6.00000 -18.1491 113.808 TC -18.1067 113.777 2 -18.2587 114.020 TC 108 941 4 241
1975081S12116 1975 31 SI WA BEVERLEY 1975-03-27 06:00:00 TS -18.2686 113.732 main 388 388 O_____P__OP_O_ jtwc_sh SH281975 -18.2000 113.700 -1 -18.3667 113.736 40 100 938 -18.2000 113.700 TC -18.1450 113.658 2 -18.3000 113.900 TC 110 940 3 243
1975081S12116 1975 31 SI WA BEVERLEY 1975-03-27 07:00:00 TS -18.2925 113.677 100 938 bom main 388 388 P_____O__PP_P_ SH281975 -18.2114 113.636 -1 -18.4000 113.700 40 100 938 6.00000 -18.2114 113.636 TC -18.1605 113.597 2 -18.3328 113.847 TC 110 939 4 249
1975081S12116 1975 31 SI WA BEVERLEY 1975-03-27 09:00:00 TS -18.3338 113.557 main 395 395 P_____P__PP_P_ SH281975 -18.2150 113.500 -1 -18.4667 113.564 40 103 937 -18.2150 113.500 TC -18.1838 113.476 2 -18.4074 113.750 TC 112 938 4 251
1975081S12116 1975 31 SI WA BEVERLEY 1975-03-27 10:00:00 TS -18.3510 113.497 105 937 bom main 392 392 P_____O__PP_P_ SH281975 -18.2109 113.431 -1 -18.5000 113.500 40 105 937 6.00000 -18.2109 113.431 TC -18.1917 113.416 2 -18.4437 113.702 TC 113 938 3 254
1975081S12116 1975 31 SI WA BEVERLEY 1975-03-27 12:00:00 TS -18.3791 113.389 main 396 396 O_____P__OO_O_ jtwc_sh SH281975 -18.2000 113.300 -1 -18.5746 113.436 40 105 936 -18.2000 113.300 TC -18.2000 113.300 2 -18.5000 113.600 TC 115 937 3 256
1975081S12116 1975 31 SI WA BEVERLEY 1975-03-27 13:00:00 TS -18.3896 113.337 105 936 bom main 398 398 P_____O__PP_P_ SH281975 -18.2026 113.244 -1 -18.6000 113.400 40 105 936 6.00000 -18.2026 113.244 TC -18.2016 113.255 2 -18.5140 113.539 TC 115 936 3 264
1975081S12116 1975 31 SI WA BEVERLEY 1975-03-27 15:00:00 TS -18.3949 113.225 main 400 400 P_____P__PP_P_ SH281975 -18.2075 113.143 -1 -18.6054 113.280 40 105 934 -18.2075 113.143 TC -18.1963 113.171 2 -18.5225 113.407 TC 115 935 3 269
1975081S12116 1975 31 SI WA BEVERLEY 1975-03-27 16:00:00 TS -18.3919 113.166 105 934 bom main 400 400 P_____O__PP_P_ SH281975 -18.2079 113.095 -1 -18.6000 113.200 40 105 934 6.00000 -18.2079 113.095 TC -18.1900 113.130 2 -18.5188 113.339 TC 115 934 4 275
1975081S12116 1975 31 SI WA BEVERLEY 1975-03-27 18:00:00 TS -18.3800 113.040 main 405 405 O_____P__OP_O_ jtwc_sh SH281975 -18.2000 113.000 -1 -18.6079 112.998 40 108 932 -18.2000 113.000 TC -18.1721 113.045 2 -18.5000 113.200 TC 115 933 4 278
1975081S12116 1975 31 SI WA BEVERLEY 1975-03-27 19:00:00 TS -18.3664 112.980 110 932 bom main 405 405 P_____O__PP_P_ SH281975 -18.1864 112.958 -1 -18.6000 112.900 40 110 932 6.50000 -18.1864 112.958 TC -18.1611 112.999 2 -18.4890 113.133 TC 115 932 4 289
1975081S12116 1975 31 SI WA BEVERLEY 1975-03-27 21:00:00 TS -18.3234 112.864 main 418 418 P_____P__PP_P_ SH281975 -18.1499 112.872 -1 -18.5388 112.753 40 110 930 -18.1499 112.872 TC -18.1368 112.896 2 -18.4575 113.000 TC 117 931 4 292
1975081S12116 1975 31 SI WA BEVERLEY 1975-03-27 22:00:00 TS -18.2990 112.807 110 930 bom main 421 421 P_____O__PP_P_ SH281975 -18.1308 112.824 -1 -18.5000 112.700 40 110 930 6.50000 -18.1308 112.824 TC -18.1243 112.837 2 -18.4387 112.933 TC 118 931 4 292
1975081S12116 1975 31 SI WA BEVERLEY 1975-03-28 00:00:00 TS -18.2556 112.689 main 424 424 O_____P__OO_O_ jtwc_sh SH281975 -18.1000 112.700 -1 -18.4333 112.636 40 110 929 -18.1000 112.700 TC -18.1000 112.700 2 -18.4000 112.800 TC 120 930 4 289
1975081S12116 1975 31 SI WA BEVERLEY 1975-03-28 01:00:00 TS -18.2379 112.622 110 929 bom main 438 438 P_____O__PP_P_ SH281975 -18.0969 112.620 -1 -18.4000 112.600 40 110 929 6.50000 6.50000 4 -18.0969 112.620 TC -18.0881 112.609 2 -18.3755 112.733 TC 120 930 4 283
1975081S12116 1975 31 SI WA BEVERLEY 1975-03-28 03:00:00 TS -18.2060 112.466 main 442 442 P_____P__PP_P_ SH281975 -18.1000 112.430 -1 -18.3254 112.472 40 110 929 -18.1000 112.430 TC -18.0632 112.405 2 -18.3275 112.600 TC 120 930 5 281
1975081S12116 1975 31 SI WA BEVERLEY 1975-03-28 04:00:00 TS -18.1949 112.381 110 930 bom main 446 446 P_____O__PP_P_ SH281975 -18.1025 112.324 -1 -18.3000 112.400 40 110 930 6.50000 -18.1025 112.324 TC -18.0508 112.295 2 -18.3096 112.533 TC 120 930 5 275
1975081S12116 1975 31 SI WA BEVERLEY 1975-03-28 06:00:00 TS -18.1858 112.207 main 454 454 O_____P__OP_O_ jtwc_sh SH281975 -18.1000 112.100 -1 -18.2866 112.275 40 110 930 -18.1000 112.100 TC -18.0280 112.065 2 -18.3000 112.400 TC 120 930 5 272
1975081S12116 1975 31 SI WA BEVERLEY 1975-03-28 07:00:00 TS -18.1881 112.115 110 931 bom main 458 458 P_____O__PP_P_ SH281975 -18.0838 111.986 -1 -18.3000 112.200 40 110 931 6.50000 -18.0838 111.986 TC -18.0183 111.948 2 -18.3214 112.339 TC 119 930 6 266
1975081S12116 1975 31 SI WA BEVERLEY 1975-03-28 09:00:00 TS -18.2045 111.916 main 468 468 P_____P__PP_P_ SH281975 -18.0425 111.750 -1 -18.3533 111.998 40 110 932 -18.0425 111.750 TC -18.0038 111.717 2 -18.3924 112.215 TC 117 931 6 264
1975081S12116 1975 31 SI WA BEVERLEY 1975-03-28 10:00:00 TS -18.2186 111.816 110 933 bom main 473 468 P_____O__PP_P_ SH281975 -18.0230 111.631 -1 -18.4000 111.900 40 110 933 6.50000 -18.0230 111.631 TC -17.9998 111.606 2 -18.4328 112.149 TC 116 931 6 259
1975081S12116 1975 31 SI WA BEVERLEY 1975-03-28 12:00:00 TS -18.2573 111.628 main 474 474 O_____P__OO_O_ jtwc_sh SH281975 -18.0000 111.400 -1 -18.5437 111.769 40 106 934 -18.0000 111.400 TC -18.0000 111.400 2 -18.5000 112.000 TC 115 933 5 258
1975081S12116 1975 31 SI WA BEVERLEY 1975-03-28 13:00:00 TS -18.2749 111.533 105 935 bom main 479 479 P_____O__PP_P_ SH281975 -18.0052 111.284 -1 -18.6000 111.700 40 105 935 6.00000 -18.0052 111.284 TC -18.0053 111.303 2 -18.5167 111.909 TC 115 933 6 262
1975081S12116 1975 31 SI WA BEVERLEY 1975-03-28 15:00:00 TS -18.2955 111.335 main 491 491 P_____P__PP_P_ SH281975 -18.0350 111.063 -1 -18.6188 111.498 40 105 936 -18.0350 111.063 TC -18.0243 111.120 2 -18.5300 111.708 TC 115 935 6 265
1975081S12116 1975 31 SI WA BEVERLEY 1975-03-28 16:00:00 TS -18.3004 111.240 105 937 bom main 497 497 P_____O__PP_P_ SH281975 -18.0558 110.963 -1 -18.6000 111.400 40 105 937 6.00000 -18.0558 110.963 TC -18.0374 111.034 2 -18.5267 111.603 TC 115 935 5 269
1975081S12116 1975 31 SI WA BEVERLEY 1975-03-28 18:00:00 TS -18.3014 111.074 main 503 503 O_____P__OP_O_ jtwc_sh SH281975 -18.1000 110.800 -1 -18.5387 111.261 40 105 938 -18.1000 110.800 TC -18.0699 110.880 2 -18.5000 111.400 TC 115 937 5 272
1975081S12116 1975 31 SI WA BEVERLEY 1975-03-28 19:00:00 TS -18.2924 110.996 105 939 bom main 510 510 P_____O__PP_P_ SH281975 -18.1166 110.736 -1 -18.5000 111.200 40 105 939 6.00000 -18.1166 110.736 TC -18.0887 110.813 2 -18.4676 111.300 TC 114 937 4 278
1975081S12116 1975 31 SI WA BEVERLEY 1975-03-28 21:00:00 TS -18.2711 110.859 main 516 516 P_____P__PP_P_ SH281975 -18.1499 110.647 -1 -18.4333 111.082 40 101 939 -18.1499 110.647 TC -18.1306 110.701 2 -18.3850 111.112 TC 112 938 4 279
1975081S12116 1975 31 SI WA BEVERLEY 1975-03-28 22:00:00 TS -18.2617 110.798 100 940 bom main 523 523 P_____O__PP_P_ SH281975 -18.1666 110.621 -1 -18.4000 111.000 40 100 940 6.00000 -18.1666 110.621 TC -18.1530 110.658 2 -18.3459 111.030 TC 111 938 3 277
1975081S12116 1975 31 SI WA BEVERLEY 1975-03-29 00:00:00 TS -18.2516 110.685 main 529 529 O_____P__OO_O_ jtwc_sh SH281975 -18.2000 110.600 -1 -18.3097 110.713 40 100 941 -18.2000 110.600 TC -18.2000 110.600 2 -18.3000 110.900 TC 110 940 3 269
1975081S12116 1975 31 SI WA BEVERLEY 1975-03-29 01:00:00 TS -18.2632 110.649 100 942 bom main 536 536 P_____O__PP_P_ SH281975 -18.2140 110.597 -1 -18.3000 110.600 40 100 942 5.00000 6.00000 -18.2140 110.597 TC -18.2191 110.587 2 -18.3078 110.853 TC 109 940 2 201
1975081S12116 1975 31 SI WA BEVERLEY 1975-03-29 03:00:00 TS -18.3253 110.640 main 536 521 P_____P__PP_P_ SH281975 -18.2425 110.620 -1 -18.4249 110.570 40 100 943 -18.2425 110.620 TC -18.2596 110.592 2 -18.3624 110.798 TC 107 942 2 0
1975081S12116 1975 31 SI WA BEVERLEY 1975-03-29 04:00:00 TS -18.3638 110.655 100 944 bom main 521 521 P_____O__PP_P_ SH281975 -18.2588 110.642 -1 -18.5000 110.600 40 100 944 6.00000 -18.2588 110.642 TC -18.2811 110.608 2 -18.4037 110.788 TC 106 943 2 155
1975081S12116 1975 31 SI WA BEVERLEY 1975-03-29 06:00:00 TS -18.4333 110.704 main 521 512 O_____P__OP_O_ jtwc_sh SH281975 -18.3000 110.700 -1 -18.5721 110.661 40 96 945 -18.3000 110.700 TC -18.3274 110.660 2 -18.5000 110.800 TC 105 945 2 144
1975081S12116 1975 31 SI WA BEVERLEY 1975-03-29 07:00:00 TS -18.4652 110.731 95 946 bom main 512 506 P_____O__PP_P_ SH281975 -18.3276 110.730 -1 -18.6000 110.700 40 95 946 5.50000 -18.3276 110.730 TC -18.3524 110.694 2 -18.5469 110.814 TC 104 945 3 140
1975081S12116 1975 31 SI WA BEVERLEY 1975-03-29 09:00:00 TS -18.5334 110.795 main 506 497 P_____P__PP_P_ SH281975 -18.3925 110.800 -1 -18.6588 110.759 40 95 947 -18.3925 110.800 TC -18.4065 110.773 2 -18.6500 110.870 TC 102 947 3 138
1975081S12116 1975 31 SI WA BEVERLEY 1975-03-29 10:00:00 TS -18.5708 110.834 95 948 bom main 497 490 P_____O__PP_P_ SH281975 -18.4279 110.836 -1 -18.7000 110.800 40 95 948 5.50000 -18.4279 110.836 TC -18.4359 110.815 2 -18.7025 110.909 TC 101 947 3 135
1975081S12116 1975 31 SI WA BEVERLEY 1975-03-29 12:00:00 TS -18.6560 110.921 main 482 475 O_____P__OO_O_ jtwc_sh SH281975 -18.5000 110.900 -1 -18.8358 110.928 40 91 950 -18.5000 110.900 TC -18.5000 110.900 2 -18.8000 111.000 TC 100 949 3 136
1975081S12116 1975 31 SI WA BEVERLEY 1975-03-29 13:00:00 TS -18.6954 110.960 90 951 bom main 475 466 P_____O__PP_P_ SH281975 -18.5307 110.917 -1 -18.9000 111.000 40 90 951 5.50000 -18.5307 110.917 TC -18.5250 110.919 2 -18.8391 111.047 TC 99 949 3 134
1975081S12116 1975 31 SI WA BEVERLEY 1975-03-29 15:00:00 TS -18.7654 111.039 main 466 459 P_____P__PP_P_ SH281975 -18.5925 110.943 -1 -18.9721 111.141 40 90 953 -18.5925 110.943 TC -18.5779 110.957 2 -18.9075 111.150 TC 97 952 3 133
1975081S12116 1975 31 SI WA BEVERLEY 1975-03-29 16:00:00 TS -18.7999 111.077 90 954 bom main 459 451 P_____O__PP_P_ SH281975 -18.6254 110.956 -1 -19.0000 111.200 40 90 954 5.50000 -18.6254 110.956 TC -18.6071 110.977 2 -18.9388 111.202 TC 96 952 3 137
1975081S12116 1975 31 SI WA BEVERLEY 1975-03-29 18:00:00 TS -18.8735 111.150 main 451 444 O_____P__OP_O_ jtwc_sh SH281975 -18.7000 111.000 -1 -19.0667 111.272 40 86 956 -18.7000 111.000 TC -18.6746 111.026 2 -19.0000 111.300 TC 95 955 3 139
1975081S12116 1975 31 SI WA BEVERLEY 1975-03-29 19:00:00 TS -18.9068 111.181 85 958 bom main 444 436 P_____O__PP_P_ SH281975 -18.7364 111.031 -1 -19.1000 111.300 40 85 958 5.00000 -18.7364 111.031 TC -18.7143 111.056 2 -19.0254 111.331 TC 93 955 3 137
1975081S12116 1975 31 SI WA BEVERLEY 1975-03-29 21:00:00 TS -18.9784 111.249 main 436 429 P_____P__PP_P_ SH281975 -18.8199 111.113 -1 -19.1667 111.367 40 81 960 -18.8199 111.113 TC -18.8090 111.132 2 -19.0774 111.385 TC 90 958 3 138
1975081S12116 1975 31 SI WA BEVERLEY 1975-03-29 22:00:00 TS -19.0206 111.290 80 961 bom main 429 413 P_____O__PP_P_ SH281975 -18.8708 111.166 -1 -19.2000 111.400 40 80 961 5.00000 -18.8708 111.166 TC -18.8655 111.180 2 -19.1096 111.415 TC 88 958 4 137
1975081S12116 1975 31 SI WA BEVERLEY 1975-03-30 00:00:00 TS -19.1251 111.392 main 413 405 O_____P__OO_O_ jtwc_sh SH281975 -19.0000 111.300 -1 -19.2508 111.451 40 80 963 -19.0000 111.300 TC -19.0000 111.300 2 -19.2000 111.500 TC 85 961 5 137
1975081S12116 1975 31 SI WA BEVERLEY 1975-03-30 01:00:00 TS -19.1959 111.463 80 964 bom main 398 374 P_____O__PP_P_ SH281975 -19.0803 111.380 -1 -19.3000 111.500 40 80 964 4.00000 5.00000 -19.0803 111.380 TC -19.0767 111.377 2 -19.2610 111.561 TC 84 961 7 137
1975081S12116 1975 31 SI WA BEVERLEY 1975-03-30 03:00:00 TS -19.3759 111.642 main 374 359 P_____P__PP_P_ SH281975 -19.2700 111.570 -1 -19.4812 111.673 40 80 965 -19.2700 111.570 TC -19.2515 111.556 2 -19.4125 111.713 TC 82 963 8 136
1975081S12116 1975 31 SI WA BEVERLEY 1975-03-30 04:00:00 TS -19.4800 111.748 80 966 bom main 359 322 P_____O__PP_P_ SH281975 -19.3758 111.676 -1 -19.6000 111.800 40 80 966 5.00000 -19.3758 111.676 TC -19.3486 111.657 2 -19.5012 111.801 TC 81 963 9 135
1975081S12116 1975 31 SI WA BEVERLEY 1975-03-30 06:00:00 TS -19.7049 111.986 main 322 306 O_____P__OP_O_ jtwc_sh SH281975 -19.6000 111.900 -1 -19.8692 112.138 40 80 966 -19.6000 111.900 TC -19.5603 111.875 2 -19.7000 112.000 TC 80 965 10 135
1975081S12116 1975 31 SI WA BEVERLEY 1975-03-30 07:00:00 TS -19.8159 112.103 80 966 bom main 306 276 P_____O__PP_P_ SH281975 -19.7136 112.011 -1 -20.0000 112.300 40 80 966 5.00000 -19.7136 112.011 TC -19.6738 111.991 2 -19.8027 112.108 TC 80 965 9 136
1975081S12116 1975 31 SI WA BEVERLEY 1975-03-30 09:00:00 TS -20.0374 112.328 main 276 260 P_____P__PP_P_ SH281975 -19.9500 112.243 -1 -20.2054 112.519 40 80 966 -19.9500 112.243 TC -19.9139 112.231 2 -20.0276 112.342 TC 80 965 9 137
1975081S12116 1975 31 SI WA BEVERLEY 1975-03-30 10:00:00 TS -20.1503 112.439 80 966 bom main 252 221 P_____O__PP_P_ SH281975 -20.0691 112.361 -1 -20.3000 112.600 40 80 966 5.00000 -20.0691 112.361 TC -20.0396 112.354 2 -20.1479 112.464 TC 80 965 9 138
1975081S12116 1975 31 SI WA BEVERLEY 1975-03-30 12:00:00 TS -20.3807 112.654 main 215 206 O_____P__OO_O_ jtwc_sh SH281975 -20.3000 112.600 -1 -20.4841 112.723 40 76 966 -20.3000 112.600 TC -20.3000 112.600 2 -20.4000 112.700 TC 80 966 9 138
1975081S12116 1975 31 SI WA BEVERLEY 1975-03-30 13:00:00 TS -20.4904 112.764 75 967 bom main 199 169 P_____O__PP_P_ SH281975 -20.3926 112.717 -1 -20.6000 112.800 40 75 967 4.50000 -20.3926 112.717 TC -20.4075 112.728 2 -20.5223 112.806 TC 80 966 10 137
1975081S12116 1975 31 SI WA BEVERLEY 1975-03-30 15:00:00 TS -20.7313 113.004 main 169 154 P_____P__PP_P_ SH281975 -20.5699 112.950 -1 -20.9304 113.064 40 75 967 -20.5699 112.950 TC -20.6277 112.991 2 -20.7774 113.008 TC 80 966 10 138
1975081S12116 1975 31 SI WA BEVERLEY 1975-03-30 16:00:00 TS -20.8592 113.123 75 968 bom main 145 115 P_____O__PP_P_ SH281975 -20.6659 113.067 -1 -21.1000 113.200 40 75 968 4.50000 -20.6659 113.067 TC -20.7434 113.124 2 -20.9120 113.106 TC 80 966 10 141
1975081S12116 1975 31 SI WA BEVERLEY 1975-03-30 18:00:00 TS -21.1262 113.348 main 115 99 O_____P__OP_O_ jtwc_sh SH281975 -20.9000 113.300 -1 -21.3642 113.406 40 71 968 -20.9000 113.300 TC -20.9933 113.382 2 -21.2000 113.300 TC 80 967 10 142
1975081S12116 1975 31 SI WA BEVERLEY 1975-03-30 19:00:00 TS -21.2696 113.463 70 969 bom main 84 45 P_____O__PP_P_ SH281975 -21.0391 113.435 -1 -21.5000 113.500 40 70 969 4.50000 -21.0391 113.435 TC -21.1305 113.505 2 -21.3421 113.405 TC 79 967 11 146
1975081S12116 1975 31 SI WA BEVERLEY 1975-03-30 21:00:00 TS -21.5920 113.691 main 45 30 P_____P__PP_P_ SH281975 -21.3677 113.702 -1 -21.8121 113.716 40 70 969 -21.3677 113.702 TC -21.4371 113.732 2 -21.6475 113.615 TC 77 968 12 149
1975081S12116 1975 31 SI WA BEVERLEY 1975-03-30 22:00:00 TS -21.7750 113.792 70 969 bom main 23 0 P_____O__PP_P_ SH281975 -21.5589 113.821 -1 -22.0000 113.800 40 70 969 4.50000 -21.5589 113.821 TC -21.6095 113.832 2 -21.8163 113.716 TC 76 968 13 159
1975081S12116 1975 31 SI WA BEVERLEY 1975-03-31 00:00:00 TS -22.1926 113.945 main 0 0 O_____P__OO_O_ jtwc_sh SH281975 -22.0000 114.000 -1 -22.4558 113.870 40 70 969 -22.0000 114.000 TC -22.0000 114.000 2 -22.2000 113.900 TC 75 969 14 164
1975081S12116 1975 31 SI WA BEVERLEY 1975-03-31 01:00:00 TS -22.4231 113.991 70 970 bom main 0 0 P_____O__PP_P_ SH281975 -22.2490 114.035 -1 -22.7000 113.900 40 70 970 4.50000 -22.2490 114.035 TC -22.2273 114.039 2 -22.4188 113.978 TC 72 969 15 172
1975081S12116 1975 31 SI WA BEVERLEY 1975-03-31 03:00:00 TS -22.9209 114.058 main 0 0 P_____P__PP_P_ SH281975 -22.8049 114.039 -1 -23.1746 114.028 40 70 970 -22.8049 114.039 TC -22.7311 114.076 2 -22.9049 114.115 TC 67 969 15 173
1975081S12116 1975 31 SI WA BEVERLEY 1975-03-31 04:00:00 TS -23.1823 114.083 70 970 bom main 0 0 P_____O__PP_P_ SH281975 -23.1007 114.023 -1 -23.4000 114.100 40 70 970 -23.1007 114.023 TC -23.0036 114.080 2 -23.1649 114.178 TC 65 969 16 175
1975081S12116 1975 31 SI WA BEVERLEY 1975-03-31 06:00:00 TS -23.7114 114.134 main 0 0 O_____P__OP_O_ jtwc_sh SH281975 -23.7000 114.000 -1 -23.7896 114.226 40 63 971 -23.7000 114.000 TC -23.5790 114.077 2 -23.7000 114.300 TC 60 970 16 174
1975081S12116 1975 31 SI WA BEVERLEY 1975-03-31 07:00:00 TS -23.9755 114.172 60 972 bom main 0 0 P_____O__PP_P_ SH281975 -23.9832 114.004 -1 -24.0000 114.300 30 60 972 -23.9832 114.004 TC -23.8778 114.076 2 -23.9557 114.369 TC 58 970 17 171
1975081S12116 1975 31 SI WA BEVERLEY 1975-03-31 09:00:00 TS -24.5281 114.271 main 0 0 P_____P__PP_P_ SH281975 -24.5498 114.033 -1 -24.5067 114.502 30 56 972 -24.5498 114.033 TC -24.4873 114.089 2 -24.4775 114.508 TC 55 971 17 170
1975081S12116 1975 31 SI WA BEVERLEY 1975-03-31 10:00:00 TS -24.8156 114.328 55 973 bom main 0 0 P_____O__PP_P_ SH281975 -24.8331 114.068 -1 -24.8000 114.600 30 55 973 -24.8331 114.068 TC -24.7938 114.111 2 -24.7454 114.575 TC 53 971 18 169
1975081S12116 1975 31 SI WA BEVERLEY 1975-03-31 12:00:00 TS -25.4067 114.460 main 0 0 O_____P__OO_O_ jtwc_sh SH281975 -25.4000 114.200 -1 -25.4400 114.762 30 51 973 -25.4000 114.200 TC -25.4000 114.200 2 -25.3000 114.700 TC 50 973 18 168
1975081S12116 1975 31 SI WA BEVERLEY 1975-03-31 13:00:00 TS -25.7108 114.533 50 974 bom main 0 0 P_____O__PP_P_ SH281975 -25.6861 114.310 -1 -25.8000 114.800 30 50 974 -25.6861 114.310 TC -25.6810 114.296 2 -25.5937 114.746 TC 48 973 19 168
1975081S12116 1975 31 SI WA BEVERLEY 1975-03-31 15:00:00 TS -26.3432 114.676 main 0 0 P_____P__PP_P_ SH281975 -26.2577 114.597 -1 -26.6207 114.719 30 46 974 -26.2577 114.597 TC -26.2409 114.533 2 -26.1998 114.828 TC 45 975 19 168
1975081S12116 1975 31 SI WA BEVERLEY 1975-03-31 16:00:00 TS -26.6549 114.762 45 975 bom main 0 0 P_____O__PP_P_ SH281975 -26.5414 114.762 -1 -27.0000 114.700 30 45 975 -26.5414 114.762 TC -26.5196 114.671 2 -26.5048 114.875 TC 43 976 19 162
1975081S12116 1975 31 SI WA BEVERLEY 1975-03-31 18:00:00 TS -27.2407 114.991 main 0 0 O_____P__OP_O_ jtwc_sh SH281975 -27.1000 115.100 -1 -27.5709 114.870 30 41 978 -27.1000 115.100 TC -27.0735 114.977 2 -27.1000 115.000 TC 40 978 18 160
1975081S12116 1975 31 SI WA BEVERLEY 1975-03-31 19:00:00 TS -27.5170 115.123 40 980 bom main 0 0 P_____O__PP_P_ SH281975 -27.3723 115.250 -1 -27.8000 115.000 30 40 980 -27.3723 115.250 TC -27.3485 115.142 2 -27.3754 115.081 TC 39 979 18 156
1975081S12116 1975 31 SI WA BEVERLEY 1975-03-31 21:00:00 TS -28.0526 115.408 main 0 0 P_____P__PP_P_ SH281975 -27.9073 115.551 -1 -28.2029 115.254 30 36 984 -27.9073 115.551 TC -27.8941 115.484 2 -27.9072 115.283 TC 37 983 18 154
1975081S12116 1975 31 SI WA BEVERLEY 1975-03-31 22:00:00 TS -28.3170 115.563 35 987 bom main 0 0 P_____O__PP_P_ SH281975 -28.1720 115.701 -1 -28.4000 115.400 30 35 987 -28.1720 115.701 TC -28.1645 115.657 2 -28.1693 115.406 TC 36 985 18 152
1975081S12116 1975 31 SI WA BEVERLEY 1975-04-01 00:00:00 TS -28.8452 115.890 main 0 0 O_____P__OO_O_ jtwc_sh SH281975 -28.7000 116.000 -1 -28.8058 115.713 30 31 991 -28.7000 116.000 TC -28.7000 116.000 2 -28.7000 115.700 TC 35 989 18 151
1975081S12116 1975 31 SI WA BEVERLEY 1975-04-01 01:00:00 TS -29.1255 116.065 30 994 bom main 0 0 P_____O__PP_P_ SH281975 -28.9692 116.150 -1 -29.1000 115.900 20 30 994 -28.9692 116.150 TC -28.9650 116.166 2 -28.9734 115.872 TC 35 989 21 152
1975081S12116 1975 31 SI WA BEVERLEY 1975-04-01 03:00:00 TS -29.7493 116.437 main 0 0 P_____P__PP_P_ SH281975 -29.5073 116.451 -1 -30.0268 116.340 20 30 994 -29.5073 116.451 TC -29.4900 116.484 2 -29.5358 116.257 TC 35 992 21 152
1975081S12116 1975 31 SI WA BEVERLEY 1975-04-01 04:00:00 TS -30.0675 116.633 30 995 bom main 0 0 P_____O__PP_P_ SH281975 -29.7744 116.601 -1 -30.5000 116.600 20 30 995 -29.7744 116.601 TC -29.7504 116.638 2 -29.8223 116.466 TC 35 992 21 150
1975081S12116 1975 31 SI WA BEVERLEY 1975-04-01 06:00:00 TS -30.6453 117.027 main 0 0 O_____P__OP_O_ jtwc_sh SH281975 -30.3000 116.900 -1 -31.2202 117.228 20 30 995 -30.3000 116.900 TC -30.2674 116.937 2 -30.4000 116.900 TC 35 995 20 150
1975081S12116 1975 31 SI WA BEVERLEY 1975-04-01 07:00:00 TS -30.9176 117.207 30 996 bom main 0 0 P_____O__PP___ SH281975 -30.5569 117.050 -1 -31.5000 117.500 20 30 996 -30.5569 117.050 TC -30.5245 117.084 2 TC 18 152
1975081S12116 1975 31 SI WA BEVERLEY 1975-04-01 09:00:00 TS -31.4595 117.529 main 0 0 P_____P__PP___ SH281975 -31.0603 117.349 -1 -31.9136 117.810 20 30 996 -31.0603 117.349 TC -31.0362 117.372 2 TC 19 154
1975081S12116 1975 31 SI WA BEVERLEY 1975-04-01 10:00:00 TS -31.7722 117.691 30 997 bom main 0 0 P_____O__PP___ SH281975 -31.3082 117.499 -1 -32.1000 117.900 20 30 997 -31.3082 117.499 TC -31.2912 117.514 2 TC 20 158
1975081S12116 1975 31 SI WA BEVERLEY 1975-04-01 12:00:00 TS -32.3648 117.962 main 0 0 O_____P__OO___ jtwc_sh SH281975 -31.8000 117.800 -1 -32.5533 118.044 20 30 997 -31.8000 117.800 TC -31.8000 117.800 6 22 162
1975081S12116 1975 31 SI WA BEVERLEY 1975-04-01 13:00:00 TS -32.8165 118.097 30 997 bom main 0 0 ______O_______ SH281975 -1 -32.8000 118.100 20 30 997 TC 6 20 166
1975081S12116 1975 31 SI WA BEVERLEY 1975-04-01 15:00:00 TS -33.3215 118.241 main 0 0 ______P_______ SH281975 -1 -33.3436 118.218 20 30 996 TC 6 16 166
1975081S12116 1975 31 SI WA BEVERLEY 1975-04-01 16:00:00 TS -33.5663 118.329 30 996 bom main 0 0 ______O_______ SH281975 -1 -33.6000 118.300 20 30 996 TC 6 15 158
1975081S12116 1975 31 SI WA BEVERLEY 1975-04-01 18:00:00 TS -34.0015 118.574 main 0 0 ______P_______ -1 -34.0029 118.548 20 26 995 6 15 153
1975081S12116 1975 31 SI WA BEVERLEY 1975-04-01 19:00:00 TS -34.2205 118.731 25 995 bom main 0 0 ______O_______ -1 -34.2000 118.700 20 25 995 6 16 149
1975081S12116 1975 31 SI WA BEVERLEY 1975-04-01 21:00:00 TS -34.6875 119.067 main 28 28 ______P_______ -1 -34.6529 118.981 20 25 994 6 17 147
1975081S12116 1975 31 SI WA BEVERLEY 1975-04-01 22:00:00 TS -34.9282 119.291 25 994 bom main 44 44 ______O_______ -1 -34.9000 119.200 50 25 994 6 20 137
1975081S12116 1975 31 SI WA BEVERLEY 1975-04-02 00:00:00 TS -35.4259 119.904 main 110 110 ______P_______ -1 -35.4519 119.908 50 25 994 21 133
1975081S12116 1975 31 SI WA BEVERLEY 1975-04-02 01:00:00 TS -35.6530 120.244 25 994 bom main 152 152 ______O_______ -1 -35.7000 120.300 50 25 994 20 126
1975081S12116 1975 31 SI WA BEVERLEY 1975-04-02 03:00:00 TS -36.0227 120.904 main 213 213 ______P_______ -1 -36.0574 120.988 50 25 994 19 124
1975081S12116 1975 31 SI WA BEVERLEY 1975-04-02 04:00:00 TS -36.1829 121.225 25 994 bom main 247 247 ______O_______ -1 -36.2000 121.300 50 25 994 17 122
1975081S12116 1975 31 SI WA BEVERLEY 1975-04-02 06:00:00 TS -36.4819 121.818 main 279 279 ______P_______ -1 -36.4639 121.837 50 25 993 17 122
1975081S12116 1975 31 SI WA BEVERLEY 1975-04-02 07:00:00 TS -36.6238 122.097 25 993 bom main 289 289 ______O_______ -1 -36.6000 122.100 50 25 993 16 123
1975081S12116 1975 31 SI WA BEVERLEY 1975-04-02 09:00:00 TS -36.9272 122.682 main 323 323 ______P_______ -1 -36.9279 122.703 50 25 993 17 123
1975081S12116 1975 31 SI WA BEVERLEY 1975-04-02 10:00:00 TS -37.0852 122.970 25 993 bom main 345 345 ______O_______ -1 -37.1000 123.000 50 25 993 16 126
1975081S12116 1975 31 SI WA BEVERLEY 1975-04-02 12:00:00 TS -37.4086 123.516 main 379 379 ______P_______ -1 -37.4173 123.531 50 25 993 17 128
1975081S12116 1975 31 SI WA BEVERLEY 1975-04-02 13:00:00 TS -37.5955 123.791 25 993 bom main 404 404 ______O_______ -1 -37.6000 123.800 50 25 993 19 133
1975081S12116 1975 31 SI WA BEVERLEY 1975-04-02 15:00:00 TS -38.0397 124.376 main 458 458 ______P_______ -1 -38.0557 124.395 50 25 993 20 135
1975081S12116 1975 31 SI WA BEVERLEY 1975-04-02 16:00:00 TS -38.2827 124.679 25 993 bom main 497 497 ______O_______ -1 -38.3000 124.700 50 25 993 21 136
1975081S12116 1975 31 SI WA BEVERLEY 1975-04-02 18:00:00 TS -38.7713 125.293 main 566 566 ______P_______ -1 -38.7426 125.285 50 25 992 21 136
1975081S12116 1975 31 SI WA BEVERLEY 1975-04-02 19:00:00 TS -39.0462 125.624 25 992 bom main 596 596 ______O_______ -1 -39.0000 125.600 50 25 992 24 138
1975081S12116 1975 31 SI WA BEVERLEY 1975-04-02 21:00:00 TS -39.6781 126.344 main 691 691 ______P_______ -1 -39.6501 126.307 50 25 992 26 139
1975081S12116 1975 31 SI WA BEVERLEY 1975-04-02 22:00:00 TS -40.0161 126.735 25 992 bom main 736 736 ______O_______ -1 -40.0000 126.700 50 25 992 27 137
1975081S12116 1975 31 SI WA BEVERLEY 1975-04-03 00:00:00 TS -40.6823 127.569 main 839 839 ______P_______ -1 -40.6734 127.553 50 25 992 27 136
1975081S12116 1975 31 SI WA BEVERLEY 1975-04-03 01:00:00 NR -41.0000 128.000 25 992 bom main 884 ______O_______ -1 -41.0000 128.000 50 25 992 27 134

IBTrACS Databaseについて

本データベースは、米国NOAAが公開する1842年以降の世界の熱帯低気圧のベストトラックデータアーカイブInternational Best Track Archive for Climate Stewardship (IBTrACS)を、ウェブで閲覧しやすい形式に変換したものです。

最終更新日:2021-12-03